sensor_id;sensor_type;location;lat;lon;timestamp;temperature;humidity
45868;DHT22;31582;45.490;7.860;2023-01-15T00:01:49;1.00;99.90
45868;DHT22;31582;45.490;7.860;2023-01-15T00:04:16;1.00;99.90
45868;DHT22;31582;45.490;7.860;2023-01-15T00:06:43;0.90;99.90
45868;DHT22;31582;45.490;7.860;2023-01-15T00:09:14;0.90;99.90
45868;DHT22;31582;45.490;7.860;2023-01-15T00:11:41;0.90;99.90
45868;DHT22;31582;45.490;7.860;2023-01-15T00:14:08;0.90;99.90
45868;DHT22;31582;45.490;7.860;2023-01-15T00:16:35;0.90;99.90
45868;DHT22;31582;45.490;7.860;2023-01-15T00:19:02;0.90;99.90
45868;DHT22;31582;45.490;7.860;2023-01-15T00:21:30;0.80;99.90
45868;DHT22;31582;45.490;7.860;2023-01-15T00:23:57;0.80;99.90
45868;DHT22;31582;45.490;7.860;2023-01-15T00:26:43;0.80;99.90
45868;DHT22;31582;45.490;7.860;2023-01-15T00:29:28;0.80;99.90
45868;DHT22;31582;45.490;7.860;2023-01-15T00:32:01;0.70;99.90
45868;DHT22;31582;45.490;7.860;2023-01-15T00:34:28;0.70;99.90
45868;DHT22;31582;45.490;7.860;2023-01-15T00:36:57;0.80;99.90
45868;DHT22;31582;45.490;7.860;2023-01-15T00:39:24;0.80;99.90
45868;DHT22;31582;45.490;7.860;2023-01-15T00:41:53;0.80;99.90
45868;DHT22;31582;45.490;7.860;2023-01-15T00:44:20;0.80;99.90
45868;DHT22;31582;45.490;7.860;2023-01-15T00:46:47;0.80;99.90
45868;DHT22;31582;45.490;7.860;2023-01-15T00:49:15;0.80;99.90
45868;DHT22;31582;45.490;7.860;2023-01-15T00:51:42;0.80;99.90
45868;DHT22;31582;45.490;7.860;2023-01-15T00:54:09;0.80;99.90
45868;DHT22;31582;45.490;7.860;2023-01-15T00:56:37;0.80;99.90
45868;DHT22;31582;45.490;7.860;2023-01-15T00:59:04;0.80;99.90
45868;DHT22;31582;45.490;7.860;2023-01-15T01:01:31;0.80;99.90
45868;DHT22;31582;45.490;7.860;2023-01-15T01:03:59;0.80;99.90
45868;DHT22;31582;45.490;7.860;2023-01-15T01:06:26;0.80;99.90
45868;DHT22;31582;45.490;7.860;2023-01-15T01:08:54;0.80;99.90
45868;DHT22;31582;45.490;7.860;2023-01-15T01:11:23;0.80;99.90
45868;DHT22;31582;45.490;7.860;2023-01-15T01:13:53;0.70;99.90
45868;DHT22;31582;45.490;7.860;2023-01-15T01:16:26;0.70;99.90
45868;DHT22;31582;45.490;7.860;2023-01-15T01:18:53;0.70;99.90
45868;DHT22;31582;45.490;7.860;2023-01-15T01:21:20;0.80;99.90
45868;DHT22;31582;45.490;7.860;2023-01-15T01:23:47;0.80;99.90
45868;DHT22;31582;45.490;7.860;2023-01-15T01:26:14;0.80;99.90
45868;DHT22;31582;45.490;7.860;2023-01-15T01:28:42;0.80;99.90
45868;DHT22;31582;45.490;7.860;2023-01-15T01:31:09;0.90;99.90
45868;DHT22;31582;45.490;7.860;2023-01-15T01:33:36;0.90;99.90
45868;DHT22;31582;45.490;7.860;2023-01-15T01:36:03;0.90;99.90
45868;DHT22;31582;45.490;7.860;2023-01-15T01:38:30;0.90;99.90
45868;DHT22;31582;45.490;7.860;2023-01-15T01:40:57;0.90;99.90
45868;DHT22;31582;45.490;7.860;2023-01-15T01:43:26;0.90;99.90
45868;DHT22;31582;45.490;7.860;2023-01-15T01:45:54;1.00;99.90
45868;DHT22;31582;45.490;7.860;2023-01-15T01:48:28;0.90;99.90
45868;DHT22;31582;45.490;7.860;2023-01-15T01:50:57;1.00;99.90
45868;DHT22;31582;45.490;7.860;2023-01-15T01:53:27;1.00;99.90
45868;DHT22;31582;45.490;7.860;2023-01-15T01:55:57;1.00;99.90
45868;DHT22;31582;45.490;7.860;2023-01-15T01:58:28;1.00;99.90
45868;DHT22;31582;45.490;7.860;2023-01-15T02:00:57;0.90;99.90
45868;DHT22;31582;45.490;7.860;2023-01-15T08:51:47;2.80;99.90
45868;DHT22;31582;45.490;7.860;2023-01-15T08:54:18;3.00;99.90
45868;DHT22;31582;45.490;7.860;2023-01-15T08:56:46;3.10;99.90
45868;DHT22;31582;45.490;7.860;2023-01-15T08:59:13;3.20;99.90
45868;DHT22;31582;45.490;7.860;2023-01-15T09:01:42;3.20;99.90
45868;DHT22;31582;45.490;7.860;2023-01-15T09:04:14;3.30;99.90
45868;DHT22;31582;45.490;7.860;2023-01-15T09:06:42;3.50;99.90
45868;DHT22;31582;45.490;7.860;2023-01-15T09:09:09;3.70;99.90
45868;DHT22;31582;45.490;7.860;2023-01-15T09:11:37;3.80;99.90
45868;DHT22;31582;45.490;7.860;2023-01-15T09:14:07;4.00;99.90
45868;DHT22;31582;45.490;7.860;2023-01-15T09:16:54;4.10;99.90
45868;DHT22;31582;45.490;7.860;2023-01-15T09:19:23;4.30;99.90
45868;DHT22;31582;45.490;7.860;2023-01-15T09:21:50;4.40;99.90
45868;DHT22;31582;45.490;7.860;2023-01-15T09:24:17;4.50;99.90
45868;DHT22;31582;45.490;7.860;2023-01-15T09:26:43;4.60;99.90
45868;DHT22;31582;45.490;7.860;2023-01-15T09:29:10;4.70;99.90
45868;DHT22;31582;45.490;7.860;2023-01-15T09:31:37;4.80;99.90
45868;DHT22;31582;45.490;7.860;2023-01-15T09:34:06;5.00;99.90
45868;DHT22;31582;45.490;7.860;2023-01-15T09:36:34;5.10;99.90
45868;DHT22;31582;45.490;7.860;2023-01-15T09:39:02;5.20;99.90
45868;DHT22;31582;45.490;7.860;2023-01-15T09:41:49;5.40;99.90
45868;DHT22;31582;45.490;7.860;2023-01-15T09:47:45;5.80;99.90
45868;DHT22;31582;45.490;7.860;2023-01-15T09:55:55;6.30;99.90
45868;DHT22;31582;45.490;7.860;2023-01-15T09:58:39;6.40;98.40
45868;DHT22;31582;45.490;7.860;2023-01-15T10:01:15;6.60;98.20
45868;DHT22;31582;45.490;7.860;2023-01-15T10:03:57;6.70;96.60
45868;DHT22;31582;45.490;7.860;2023-01-15T10:06:44;6.90;97.30
45868;DHT22;31582;45.490;7.860;2023-01-15T10:09:19;7.00;96.40
45868;DHT22;31582;45.490;7.860;2023-01-15T10:11:53;7.20;96.20
45868;DHT22;31582;45.490;7.860;2023-01-15T10:17:23;7.40;94.10
45868;DHT22;31582;45.490;7.860;2023-01-15T10:19:52;7.60;94.40
45868;DHT22;31582;45.490;7.860;2023-01-15T10:22:43;7.70;94.20
45868;DHT22;31582;45.490;7.860;2023-01-15T10:25:18;7.90;94.00
45868;DHT22;31582;45.490;7.860;2023-01-15T10:27:46;8.10;92.10
45868;DHT22;31582;45.490;7.860;2023-01-15T10:30:17;8.30;92.50
45868;DHT22;31582;45.490;7.860;2023-01-15T10:32:51;8.40;89.90
45868;DHT22;31582;45.490;7.860;2023-01-15T10:35:51;8.50;87.80
45868;DHT22;31582;45.490;7.860;2023-01-15T10:39:01;8.60;86.70
45868;DHT22;31582;45.490;7.860;2023-01-15T10:46:29;9.10;83.30
45868;DHT22;31582;45.490;7.860;2023-01-15T10:49:11;9.30;78.80
45868;DHT22;31582;45.490;7.860;2023-01-15T10:54:46;9.30;79.40
45868;DHT22;31582;45.490;7.860;2023-01-15T10:59:58;9.30;81.30
45868;DHT22;31582;45.490;7.860;2023-01-15T11:03:01;9.10;82.00
45868;DHT22;31582;45.490;7.860;2023-01-15T11:05:31;8.90;84.80
45868;DHT22;31582;45.490;7.860;2023-01-15T11:08:00;9.10;84.90
45868;DHT22;31582;45.490;7.860;2023-01-15T11:10:48;9.30;83.20
45868;DHT22;31582;45.490;7.860;2023-01-15T11:13:22;9.30;82.30
45868;DHT22;31582;45.490;7.860;2023-01-15T11:16:22;9.10;82.20
45868;DHT22;31582;45.490;7.860;2023-01-15T11:19:32;9.20;83.40
45868;DHT22;31582;45.490;7.860;2023-01-15T11:22:11;9.10;82.70
45868;DHT22;31582;45.490;7.860;2023-01-15T11:24:53;9.40;82.20
45868;DHT22;31582;45.490;7.860;2023-01-15T11:27:30;9.40;80.50
45868;DHT22;31582;45.490;7.860;2023-01-15T11:30:00;9.40;76.50
45868;DHT22;31582;45.490;7.860;2023-01-15T11:32:37;9.60;76.80
45868;DHT22;31582;45.490;7.860;2023-01-15T11:37:33;9.80;76.00
45868;DHT22;31582;45.490;7.860;2023-01-15T11:40:01;10.00;75.10
45868;DHT22;31582;45.490;7.860;2023-01-15T11:42:36;10.20;71.60
45868;DHT22;31582;45.490;7.860;2023-01-15T11:45:23;10.20;71.50
45868;DHT22;31582;45.490;7.860;2023-01-15T11:48:20;10.20;70.40
45868;DHT22;31582;45.490;7.860;2023-01-15T11:51:11;10.10;70.80
45868;DHT22;31582;45.490;7.860;2023-01-15T11:54:02;10.10;71.90
45868;DHT22;31582;45.490;7.860;2023-01-15T11:56:32;10.20;72.20
45868;DHT22;31582;45.490;7.860;2023-01-15T11:59:09;10.10;73.20
45868;DHT22;31582;45.490;7.860;2023-01-15T12:01:39;10.10;73.60
45868;DHT22;31582;45.490;7.860;2023-01-15T12:04:37;10.20;72.00
45868;DHT22;31582;45.490;7.860;2023-01-15T12:07:12;10.20;72.20
45868;DHT22;31582;45.490;7.860;2023-01-15T12:18:56;10.30;73.90
45868;DHT22;31582;45.490;7.860;2023-01-15T12:21:46;10.30;71.80
45868;DHT22;31582;45.490;7.860;2023-01-15T12:32:45;10.30;73.40
45868;DHT22;31582;45.490;7.860;2023-01-15T12:35:52;10.00;73.80
45868;DHT22;31582;45.490;7.860;2023-01-15T12:41:41;10.00;76.80
45868;DHT22;31582;45.490;7.860;2023-01-15T12:47:18;9.80;78.90
45868;DHT22;31582;45.490;7.860;2023-01-15T12:49:52;9.80;81.00
45868;DHT22;31582;45.490;7.860;2023-01-15T12:52:25;9.70;82.20
45868;DHT22;31582;45.490;7.860;2023-01-15T12:55:04;9.70;82.40
45868;DHT22;31582;45.490;7.860;2023-01-15T12:57:36;9.60;83.50
45868;DHT22;31582;45.490;7.860;2023-01-15T13:05:55;9.60;88.50
45868;DHT22;31582;45.490;7.860;2023-01-15T13:08:23;9.70;87.80
45868;DHT22;31582;45.490;7.860;2023-01-15T13:10:51;9.80;85.60
45868;DHT22;31582;45.490;7.860;2023-01-15T13:13:34;9.70;85.70
45868;DHT22;31582;45.490;7.860;2023-01-15T13:16:26;9.50;88.60
45868;DHT22;31582;45.490;7.860;2023-01-15T13:21:32;9.20;91.70
45868;DHT22;31582;45.490;7.860;2023-01-15T13:32:50;9.40;91.70
45868;DHT22;31582;45.490;7.860;2023-01-15T13:35:29;9.50;90.80
45868;DHT22;31582;45.490;7.860;2023-01-15T13:37:59;9.40;91.20
45868;DHT22;31582;45.490;7.860;2023-01-15T13:40:33;9.30;91.70
45868;DHT22;31582;45.490;7.860;2023-01-15T13:43:04;9.30;91.90
45868;DHT22;31582;45.490;7.860;2023-01-15T13:45:39;9.30;92.30
45868;DHT22;31582;45.490;7.860;2023-01-15T13:48:11;9.20;92.10
45868;DHT22;31582;45.490;7.860;2023-01-15T13:50:50;9.10;92.40
45868;DHT22;31582;45.490;7.860;2023-01-15T13:53:43;9.20;92.50
45868;DHT22;31582;45.490;7.860;2023-01-15T13:56:12;9.20;92.50
45868;DHT22;31582;45.490;7.860;2023-01-15T13:59:03;9.20;92.50
45868;DHT22;31582;45.490;7.860;2023-01-15T14:01:33;9.20;92.80
45868;DHT22;31582;45.490;7.860;2023-01-15T14:04:13;9.20;92.60
45868;DHT22;31582;45.490;7.860;2023-01-15T14:06:45;9.30;92.20
45868;DHT22;31582;45.490;7.860;2023-01-15T14:09:25;9.30;92.50
45868;DHT22;31582;45.490;7.860;2023-01-15T14:12:17;9.40;92.10
45868;DHT22;31582;45.490;7.860;2023-01-15T14:15:02;9.50;92.00
45868;DHT22;31582;45.490;7.860;2023-01-15T14:20:44;9.50;90.70
45868;DHT22;31582;45.490;7.860;2023-01-15T14:26:10;9.60;90.30
45868;DHT22;31582;45.490;7.860;2023-01-15T14:34:12;9.50;91.30
45868;DHT22;31582;45.490;7.860;2023-01-15T14:39:33;9.40;92.60
45868;DHT22;31582;45.490;7.860;2023-01-15T14:45:07;9.00;94.30
45868;DHT22;31582;45.490;7.860;2023-01-15T14:47:53;9.00;94.90
45868;DHT22;31582;45.490;7.860;2023-01-15T14:50:35;9.00;95.00
45868;DHT22;31582;45.490;7.860;2023-01-15T14:56:02;8.80;95.90
45868;DHT22;31582;45.490;7.860;2023-01-15T15:01:00;8.80;96.50
45868;DHT22;31582;45.490;7.860;2023-01-15T15:03:36;8.70;96.80
45868;DHT22;31582;45.490;7.860;2023-01-15T15:06:05;8.70;97.00
45868;DHT22;31582;45.490;7.860;2023-01-15T15:08:34;8.60;97.60
45868;DHT22;31582;45.490;7.860;2023-01-15T15:11:01;8.50;98.20
45868;DHT22;31582;45.490;7.860;2023-01-15T15:13:51;8.50;98.80
45868;DHT22;31582;45.490;7.860;2023-01-15T15:16:26;8.60;99.10
45868;DHT22;31582;45.490;7.860;2023-01-15T15:19:01;8.70;98.60
45868;DHT22;31582;45.490;7.860;2023-01-15T15:21:36;8.70;98.60
45868;DHT22;31582;45.490;7.860;2023-01-15T15:26:39;8.60;99.10
45868;DHT22;31582;45.490;7.860;2023-01-15T15:29:15;8.60;99.30
45868;DHT22;31582;45.490;7.860;2023-01-15T15:31:48;8.70;99.10
45868;DHT22;31582;45.490;7.860;2023-01-15T15:34:31;8.60;98.90
45868;DHT22;31582;45.490;7.860;2023-01-15T15:37:01;8.50;99.60
45868;DHT22;31582;45.490;7.860;2023-01-15T15:45:29;8.50;99.80
45868;DHT22;31582;45.490;7.860;2023-01-15T15:48:20;8.60;99.00
45868;DHT22;31582;45.490;7.860;2023-01-15T15:51:31;8.70;98.10
45868;DHT22;31582;45.490;7.860;2023-01-15T15:56:31;8.90;96.80
45868;DHT22;31582;45.490;7.860;2023-01-15T15:58:59;8.90;96.80
45868;DHT22;31582;45.490;7.860;2023-01-15T16:01:26;8.70;97.20
45868;DHT22;31582;45.490;7.860;2023-01-15T16:03:54;8.60;98.20
45868;DHT22;31582;45.490;7.860;2023-01-15T16:06:22;8.60;98.60
45868;DHT22;31582;45.490;7.860;2023-01-15T16:08:57;8.60;98.50
45868;DHT22;31582;45.490;7.860;2023-01-15T16:11:32;8.50;98.80
45868;DHT22;31582;45.490;7.860;2023-01-15T16:14:04;8.50;98.40
45868;DHT22;31582;45.490;7.860;2023-01-15T16:16:32;8.40;99.70
45868;DHT22;31582;45.490;7.860;2023-01-15T16:19:01;8.20;99.90
45868;DHT22;31582;45.490;7.860;2023-01-15T16:21:31;8.20;99.90
45868;DHT22;31582;45.490;7.860;2023-01-15T16:24:04;8.30;99.90
45868;DHT22;31582;45.490;7.860;2023-01-15T16:26:46;8.40;99.40
45868;DHT22;31582;45.490;7.860;2023-01-15T16:29:24;8.40;99.50
45868;DHT22;31582;45.490;7.860;2023-01-15T16:31:52;8.20;99.90
45868;DHT22;31582;45.490;7.860;2023-01-15T16:34:30;8.20;99.90
45868;DHT22;31582;45.490;7.860;2023-01-15T16:36:59;8.30;99.90
45868;DHT22;31582;45.490;7.860;2023-01-15T16:39:28;8.10;99.90
45868;DHT22;31582;45.490;7.860;2023-01-15T16:41:57;8.10;99.90
45868;DHT22;31582;45.490;7.860;2023-01-15T16:44:40;8.10;99.90
45868;DHT22;31582;45.490;7.860;2023-01-15T16:47:23;8.00;99.90
45868;DHT22;31582;45.490;7.860;2023-01-15T16:49:51;8.00;99.90
45868;DHT22;31582;45.490;7.860;2023-01-15T16:52:55;8.10;99.90
45868;DHT22;31582;45.490;7.860;2023-01-15T17:00:42;8.00;99.90
45868;DHT22;31582;45.490;7.860;2023-01-15T17:03:14;7.90;99.90
45868;DHT22;31582;45.490;7.860;2023-01-15T17:05:43;7.90;99.90
45868;DHT22;31582;45.490;7.860;2023-01-15T17:08:30;7.90;99.90
45868;DHT22;31582;45.490;7.860;2023-01-15T17:11:02;8.00;99.80
45868;DHT22;31582;45.490;7.860;2023-01-15T17:13:39;8.10;99.40
45868;DHT22;31582;45.490;7.860;2023-01-15T17:16:16;8.10;99.00
45868;DHT22;31582;45.490;7.860;2023-01-15T17:18:43;8.10;98.80
45868;DHT22;31582;45.490;7.860;2023-01-15T17:21:17;8.10;99.00
45868;DHT22;31582;45.490;7.860;2023-01-15T17:23:45;8.00;99.90
45868;DHT22;31582;45.490;7.860;2023-01-15T17:26:23;8.00;99.90
45868;DHT22;31582;45.490;7.860;2023-01-15T17:28:51;8.00;99.50
45868;DHT22;31582;45.490;7.860;2023-01-15T17:33:49;8.00;98.40
45868;DHT22;31582;45.490;7.860;2023-01-15T17:36:17;8.00;98.10
45868;DHT22;31582;45.490;7.860;2023-01-15T17:38:44;8.00;97.80
45868;DHT22;31582;45.490;7.860;2023-01-15T17:41:16;7.90;97.90
45868;DHT22;31582;45.490;7.860;2023-01-15T17:43:44;7.80;97.90
45868;DHT22;31582;45.490;7.860;2023-01-15T17:46:11;7.50;96.90
45868;DHT22;31582;45.490;7.860;2023-01-15T17:48:38;7.20;98.10
45868;DHT22;31582;45.490;7.860;2023-01-15T17:51:10;7.10;98.40
45868;DHT22;31582;45.490;7.860;2023-01-15T17:53:37;7.00;98.90
45868;DHT22;31582;45.490;7.860;2023-01-15T17:56:04;6.90;99.30
45868;DHT22;31582;45.490;7.860;2023-01-15T17:58:50;6.80;99.50
45868;DHT22;31582;45.490;7.860;2023-01-15T18:01:40;6.80;99.00
45868;DHT22;31582;45.490;7.860;2023-01-15T18:04:32;6.60;99.40
45868;DHT22;31582;45.490;7.860;2023-01-15T18:07:22;6.50;99.40
45868;DHT22;31582;45.490;7.860;2023-01-15T18:09:51;6.50;99.50
45868;DHT22;31582;45.490;7.860;2023-01-15T18:12:18;6.40;99.80
45868;DHT22;31582;45.490;7.860;2023-01-15T18:14:45;6.20;99.90
45868;DHT22;31582;45.490;7.860;2023-01-15T18:17:12;6.10;99.90
45868;DHT22;31582;45.490;7.860;2023-01-15T18:19:39;5.80;99.90
45868;DHT22;31582;45.490;7.860;2023-01-15T18:22:06;5.80;99.90
45868;DHT22;31582;45.490;7.860;2023-01-15T18:24:34;5.80;99.90
45868;DHT22;31582;45.490;7.860;2023-01-15T18:27:01;5.50;99.90
45868;DHT22;31582;45.490;7.860;2023-01-15T18:29:27;4.70;99.90
45868;DHT22;31582;45.490;7.860;2023-01-15T18:31:54;4.30;99.90
45868;DHT22;31582;45.490;7.860;2023-01-15T18:34:21;4.30;99.90
45868;DHT22;31582;45.490;7.860;2023-01-15T18:36:48;4.30;99.90
45868;DHT22;31582;45.490;7.860;2023-01-15T18:39:15;4.30;99.90
45868;DHT22;31582;45.490;7.860;2023-01-15T18:41:42;4.30;99.90
45868;DHT22;31582;45.490;7.860;2023-01-15T18:44:20;4.40;99.90
45868;DHT22;31582;45.490;7.860;2023-01-15T18:47:11;4.40;99.90
45868;DHT22;31582;45.490;7.860;2023-01-15T18:49:40;4.40;99.90
45868;DHT22;31582;45.490;7.860;2023-01-15T18:52:08;4.40;99.90
45868;DHT22;31582;45.490;7.860;2023-01-15T18:54:54;4.40;99.90
45868;DHT22;31582;45.490;7.860;2023-01-15T18:57:22;4.40;99.90
45868;DHT22;31582;45.490;7.860;2023-01-15T18:59:50;4.40;99.90
45868;DHT22;31582;45.490;7.860;2023-01-15T19:02:20;4.40;99.90
45868;DHT22;31582;45.490;7.860;2023-01-15T19:04:47;4.30;99.90
45868;DHT22;31582;45.490;7.860;2023-01-15T19:07:15;4.30;99.90
45868;DHT22;31582;45.490;7.860;2023-01-15T19:09:42;4.30;99.90
45868;DHT22;31582;45.490;7.860;2023-01-15T19:12:09;4.20;99.90
45868;DHT22;31582;45.490;7.860;2023-01-15T19:14:35;3.90;99.90
45868;DHT22;31582;45.490;7.860;2023-01-15T19:17:23;3.80;99.90
45868;DHT22;31582;45.490;7.860;2023-01-15T19:20:11;3.60;99.90
45868;DHT22;31582;45.490;7.860;2023-01-15T19:22:38;3.30;99.90
45868;DHT22;31582;45.490;7.860;2023-01-15T19:25:25;3.30;99.90
45868;DHT22;31582;45.490;7.860;2023-01-15T19:27:53;3.30;99.90
45868;DHT22;31582;45.490;7.860;2023-01-15T19:30:21;3.40;99.90
45868;DHT22;31582;45.490;7.860;2023-01-15T19:32:48;3.40;99.90
45868;DHT22;31582;45.490;7.860;2023-01-15T19:35:15;3.40;99.90
45868;DHT22;31582;45.490;7.860;2023-01-15T19:37:42;3.30;99.90
45868;DHT22;31582;45.490;7.860;2023-01-15T19:40:12;3.30;99.90
45868;DHT22;31582;45.490;7.860;2023-01-15T19:42:50;3.30;99.90
45868;DHT22;31582;45.490;7.860;2023-01-15T19:45:41;3.20;99.90
45868;DHT22;31582;45.490;7.860;2023-01-15T19:48:41;3.10;99.90
45868;DHT22;31582;45.490;7.860;2023-01-15T19:51:26;2.80;99.90
45868;DHT22;31582;45.490;7.860;2023-01-15T19:54:13;2.80;99.90
45868;DHT22;31582;45.490;7.860;2023-01-15T19:56:40;2.70;99.90
45868;DHT22;31582;45.490;7.860;2023-01-15T19:59:07;2.70;99.90
45868;DHT22;31582;45.490;7.860;2023-01-15T20:01:34;2.70;99.90
45868;DHT22;31582;45.490;7.860;2023-01-15T20:04:01;2.70;99.90
45868;DHT22;31582;45.490;7.860;2023-01-15T20:06:28;2.70;99.90
45868;DHT22;31582;45.490;7.860;2023-01-15T20:08:55;2.70;99.90
45868;DHT22;31582;45.490;7.860;2023-01-15T20:11:22;2.80;99.90
45868;DHT22;31582;45.490;7.860;2023-01-15T20:13:49;2.80;99.90
45868;DHT22;31582;45.490;7.860;2023-01-15T20:16:20;2.70;99.90
45868;DHT22;31582;45.490;7.860;2023-01-15T20:18:51;2.70;99.90
45868;DHT22;31582;45.490;7.860;2023-01-15T20:21:19;2.70;99.90
45868;DHT22;31582;45.490;7.860;2023-01-15T20:23:46;2.60;99.90
45868;DHT22;31582;45.490;7.860;2023-01-15T20:26:13;2.70;99.90
45868;DHT22;31582;45.490;7.860;2023-01-15T20:28:41;2.70;99.90
45868;DHT22;31582;45.490;7.860;2023-01-15T20:31:16;2.60;99.90
45868;DHT22;31582;45.490;7.860;2023-01-15T20:33:44;2.40;99.90
45868;DHT22;31582;45.490;7.860;2023-01-15T20:36:13;2.30;99.90
45868;DHT22;31582;45.490;7.860;2023-01-15T20:38:40;2.30;99.90
45868;DHT22;31582;45.490;7.860;2023-01-15T20:41:09;2.20;99.90
45868;DHT22;31582;45.490;7.860;2023-01-15T20:43:54;1.90;99.90
45868;DHT22;31582;45.490;7.860;2023-01-15T20:46:40;1.90;99.90
45868;DHT22;31582;45.490;7.860;2023-01-15T20:49:07;1.90;99.90
45868;DHT22;31582;45.490;7.860;2023-01-15T20:51:53;1.90;99.90
45868;DHT22;31582;45.490;7.860;2023-01-15T20:54:22;1.90;99.90
45868;DHT22;31582;45.490;7.860;2023-01-15T20:56:50;1.80;99.90
45868;DHT22;31582;45.490;7.860;2023-01-15T20:59:17;1.80;99.90
45868;DHT22;31582;45.490;7.860;2023-01-15T21:01:44;1.70;99.90
45868;DHT22;31582;45.490;7.860;2023-01-15T21:04:11;1.80;99.90
45868;DHT22;31582;45.490;7.860;2023-01-15T21:06:39;1.70;99.90
45868;DHT22;31582;45.490;7.860;2023-01-15T21:09:07;1.80;99.90
45868;DHT22;31582;45.490;7.860;2023-01-15T21:11:34;1.80;99.90
45868;DHT22;31582;45.490;7.860;2023-01-15T21:14:02;1.80;99.90
45868;DHT22;31582;45.490;7.860;2023-01-15T21:16:29;2.00;99.90
45868;DHT22;31582;45.490;7.860;2023-01-15T21:18:56;2.00;99.90
45868;DHT22;31582;45.490;7.860;2023-01-15T21:21:27;2.10;99.90
45868;DHT22;31582;45.490;7.860;2023-01-15T21:23:54;2.20;99.90
45868;DHT22;31582;45.490;7.860;2023-01-15T21:26:21;2.40;99.90
45868;DHT22;31582;45.490;7.860;2023-01-15T21:28:53;2.40;99.90
45868;DHT22;31582;45.490;7.860;2023-01-15T21:31:20;2.40;99.90
45868;DHT22;31582;45.490;7.860;2023-01-15T21:33:47;2.40;99.90
45868;DHT22;31582;45.490;7.860;2023-01-15T21:36:14;2.50;99.90
45868;DHT22;31582;45.490;7.860;2023-01-15T21:38:49;2.30;99.90
45868;DHT22;31582;45.490;7.860;2023-01-15T21:41:17;2.20;99.90
45868;DHT22;31582;45.490;7.860;2023-01-15T21:43:44;2.00;99.90
45868;DHT22;31582;45.490;7.860;2023-01-15T21:46:29;1.90;99.90
45868;DHT22;31582;45.490;7.860;2023-01-15T21:48:59;1.90;99.90
45868;DHT22;31582;45.490;7.860;2023-01-15T21:51:26;2.00;99.90
45868;DHT22;31582;45.490;7.860;2023-01-15T21:53:54;2.00;99.90
45868;DHT22;31582;45.490;7.860;2023-01-15T21:56:22;1.90;99.90
45868;DHT22;31582;45.490;7.860;2023-01-15T21:58:49;2.00;99.90
45868;DHT22;31582;45.490;7.860;2023-01-15T22:01:16;1.90;99.90
45868;DHT22;31582;45.490;7.860;2023-01-15T22:03:44;1.90;99.90
45868;DHT22;31582;45.490;7.860;2023-01-15T22:06:11;2.00;99.90
45868;DHT22;31582;45.490;7.860;2023-01-15T22:08:38;2.00;99.90
45868;DHT22;31582;45.490;7.860;2023-01-15T22:11:08;1.90;99.90
45868;DHT22;31582;45.490;7.860;2023-01-15T22:13:35;2.00;99.90
45868;DHT22;31582;45.490;7.860;2023-01-15T22:16:03;2.10;99.90
45868;DHT22;31582;45.490;7.860;2023-01-15T22:18:31;2.00;99.90
45868;DHT22;31582;45.490;7.860;2023-01-15T22:20:59;2.10;99.90
45868;DHT22;31582;45.490;7.860;2023-01-15T22:23:26;2.10;99.90
45868;DHT22;31582;45.490;7.860;2023-01-15T22:25:53;2.20;99.90
45868;DHT22;31582;45.490;7.860;2023-01-15T22:28:21;2.20;99.90
45868;DHT22;31582;45.490;7.860;2023-01-15T22:30:48;2.10;99.90
45868;DHT22;31582;45.490;7.860;2023-01-15T22:33:15;1.90;99.90
45868;DHT22;31582;45.490;7.860;2023-01-15T22:35:42;1.90;99.90
45868;DHT22;31582;45.490;7.860;2023-01-15T22:38:08;1.80;99.90
45868;DHT22;31582;45.490;7.860;2023-01-15T22:40:35;1.80;99.90
45868;DHT22;31582;45.490;7.860;2023-01-15T22:43:02;1.70;99.90
45868;DHT22;31582;45.490;7.860;2023-01-15T22:45:29;1.60;99.90
45868;DHT22;31582;45.490;7.860;2023-01-15T22:47:56;1.60;99.90
45868;DHT22;31582;45.490;7.860;2023-01-15T22:50:23;1.60;99.90
45868;DHT22;31582;45.490;7.860;2023-01-15T22:52:50;1.50;99.90
45868;DHT22;31582;45.490;7.860;2023-01-15T22:55:17;1.50;99.90
45868;DHT22;31582;45.490;7.860;2023-01-15T22:57:44;1.30;99.90
45868;DHT22;31582;45.490;7.860;2023-01-15T23:00:13;1.40;99.90
45868;DHT22;31582;45.490;7.860;2023-01-15T23:02:41;1.30;99.90
45868;DHT22;31582;45.490;7.860;2023-01-15T23:05:21;1.40;99.90
45868;DHT22;31582;45.490;7.860;2023-01-15T23:07:48;1.40;99.90
45868;DHT22;31582;45.490;7.860;2023-01-15T23:10:15;1.40;99.90
45868;DHT22;31582;45.490;7.860;2023-01-15T23:12:42;1.30;99.90
45868;DHT22;31582;45.490;7.860;2023-01-15T23:15:11;1.30;99.90
45868;DHT22;31582;45.490;7.860;2023-01-15T23:17:39;1.30;99.90
45868;DHT22;31582;45.490;7.860;2023-01-15T23:20:07;1.20;99.90
45868;DHT22;31582;45.490;7.860;2023-01-15T23:22:34;1.30;99.90
45868;DHT22;31582;45.490;7.860;2023-01-15T23:25:02;1.30;99.90
45868;DHT22;31582;45.490;7.860;2023-01-15T23:27:28;1.30;99.90
45868;DHT22;31582;45.490;7.860;2023-01-15T23:29:55;1.30;99.90
45868;DHT22;31582;45.490;7.860;2023-01-15T23:32:22;1.30;99.90
45868;DHT22;31582;45.490;7.860;2023-01-15T23:34:49;1.30;99.90
45868;DHT22;31582;45.490;7.860;2023-01-15T23:37:16;1.20;99.90
45868;DHT22;31582;45.490;7.860;2023-01-15T23:39:43;1.20;99.90
45868;DHT22;31582;45.490;7.860;2023-01-15T23:42:10;1.20;99.90
45868;DHT22;31582;45.490;7.860;2023-01-15T23:44:55;1.10;99.90
45868;DHT22;31582;45.490;7.860;2023-01-15T23:47:41;1.00;99.90
45868;DHT22;31582;45.490;7.860;2023-01-15T23:50:08;1.00;99.90
45868;DHT22;31582;45.490;7.860;2023-01-15T23:52:35;1.00;99.90
45868;DHT22;31582;45.490;7.860;2023-01-15T23:55:02;1.00;99.90
45868;DHT22;31582;45.490;7.860;2023-01-15T23:57:29;1.00;99.90
45868;DHT22;31582;45.490;7.860;2023-01-15T23:59:56;1.10;99.90
